createdAt,value
2023-01-17T00:01:42.480Z,100.00
2023-01-17T00:04:29.823Z,100.00
2023-01-17T00:07:14.965Z,100.00
2023-01-17T00:09:53.377Z,100.00
2023-01-17T00:12:28.429Z,100.00
2023-01-17T00:14:56.449Z,100.00
2023-01-17T00:17:24.758Z,100.00
2023-01-17T00:20:10.052Z,100.00
2023-01-17T00:22:55.956Z,100.00
2023-01-17T00:25:51.486Z,100.00
2023-01-17T00:28:18.973Z,100.00
2023-01-17T00:30:46.094Z,100.00
2023-01-17T00:33:12.999Z,100.00
2023-01-17T00:35:39.853Z,100.00
2023-01-17T00:38:10.605Z,100.00
2023-01-17T00:40:38.201Z,100.00
2023-01-17T00:43:25.148Z,100.00
2023-01-17T00:46:11.089Z,100.00
2023-01-17T00:48:57.418Z,100.00
2023-01-17T00:51:42.918Z,100.00
2023-01-17T00:54:30.380Z,100.00
2023-01-17T00:57:15.978Z,100.00
2023-01-17T01:00:01.050Z,100.00
2023-01-17T01:02:46.630Z,100.00
2023-01-17T01:05:33.555Z,100.00
2023-01-17T01:08:19.931Z,100.00
2023-01-17T01:11:06.552Z,100.00
2023-01-17T01:13:52.850Z,100.00
2023-01-17T01:16:38.783Z,100.00
2023-01-17T01:19:24.624Z,100.00
2023-01-17T01:22:09.677Z,100.00
2023-01-17T01:24:54.484Z,100.00
2023-01-17T01:27:39.562Z,100.00
2023-01-17T01:30:25.217Z,100.00
2023-01-17T01:33:10.358Z,100.00
2023-01-17T01:35:37.042Z,100.00
2023-01-17T01:38:03.744Z,100.00
2023-01-17T01:40:30.225Z,100.00
2023-01-17T01:42:59.639Z,100.00
2023-01-17T01:45:28.696Z,100.00
2023-01-17T01:48:00.195Z,100.00
2023-01-17T01:50:28.261Z,100.00
2023-01-17T01:52:58.457Z,100.00
2023-01-17T01:55:34.802Z,100.00
2023-01-17T01:58:10.720Z,100.00
2023-01-17T02:00:38.992Z,100.00
2023-01-17T02:03:13.202Z,100.00
2023-01-17T02:05:42.500Z,100.00
2023-01-17T02:08:15.327Z,100.00
2023-01-17T02:10:42.590Z,100.00
2023-01-17T02:13:10.026Z,100.00
2023-01-17T02:16:01.116Z,100.00
2023-01-17T02:18:39.232Z,100.00
2023-01-17T02:21:17.685Z,100.00
2023-01-17T02:24:21.731Z,100.00
2023-01-17T02:27:28.646Z,100.00
2023-01-17T02:30:34.285Z,100.00
2023-01-17T02:33:30.013Z,100.00
2023-01-17T02:36:20.373Z,100.00
2023-01-17T02:39:09.649Z,100.00
2023-01-17T02:41:40.490Z,100.00
2023-01-17T02:44:15.399Z,100.00
2023-01-17T02:46:46.973Z,100.00
2023-01-17T02:49:16.010Z,100.00
2023-01-17T02:52:01.325Z,100.00
2023-01-17T02:54:54.087Z,100.00
2023-01-17T02:57:32.589Z,100.00
2023-01-17T03:00:22.064Z,100.00
2023-01-17T03:02:57.698Z,100.00
2023-01-17T03:05:33.806Z,100.00
2023-01-17T03:08:03.535Z,100.00
2023-01-17T03:10:32.904Z,100.00
2023-01-17T03:13:01.030Z,100.00
2023-01-17T03:15:27.600Z,100.00
2023-01-17T03:18:00.198Z,100.00
2023-01-17T03:20:27.194Z,100.00
2023-01-17T03:22:53.683Z,100.00
2023-01-17T03:25:20.201Z,100.00
2023-01-17T03:27:46.937Z,100.00
2023-01-17T03:30:13.899Z,100.00
2023-01-17T03:32:40.402Z,100.00
2023-01-17T03:35:07.174Z,100.00
2023-01-17T03:37:33.736Z,100.00
2023-01-17T03:40:00.321Z,100.00
2023-01-17T03:42:26.779Z,100.00
2023-01-17T03:44:53.294Z,100.00
2023-01-17T03:47:19.892Z,100.00
2023-01-17T03:49:46.441Z,100.00
2023-01-17T03:52:12.888Z,100.00
2023-01-17T03:54:39.402Z,100.00
2023-01-17T03:57:05.893Z,100.00
2023-01-17T03:59:34.056Z,100.00
2023-01-17T04:02:01.345Z,100.00
2023-01-17T04:04:27.895Z,100.00
2023-01-17T04:06:54.691Z,100.00
2023-01-17T04:09:21.158Z,100.00
2023-01-17T04:11:50.873Z,100.00
2023-01-17T04:14:17.687Z,100.00
2023-01-17T04:16:44.440Z,100.00
2023-01-17T04:19:13.384Z,100.00
2023-01-17T04:21:39.930Z,100.00
2023-01-17T04:24:06.861Z,100.00
2023-01-17T04:26:33.408Z,100.00
2023-01-17T04:28:59.950Z,100.00
2023-01-17T04:31:26.476Z,100.00
2023-01-17T04:33:53.025Z,100.00
2023-01-17T04:36:19.486Z,100.00
2023-01-17T04:38:46.096Z,100.00
2023-01-17T04:41:12.602Z,100.00
2023-01-17T04:43:39.195Z,100.00
2023-01-17T04:46:09.926Z,100.00
2023-01-17T04:48:37.068Z,100.00
2023-01-17T04:51:05.614Z,100.00
2023-01-17T04:53:32.603Z,100.00
2023-01-17T04:55:59.300Z,100.00
2023-01-17T04:58:25.985Z,100.00
2023-01-17T05:00:52.799Z,100.00
2023-01-17T05:03:21.298Z,100.00
2023-01-17T05:05:48.646Z,100.00
2023-01-17T05:08:15.306Z,100.00
2023-01-17T05:10:42.064Z,100.00
2023-01-17T05:13:09.326Z,100.00
2023-01-17T05:15:36.863Z,100.00
2023-01-17T05:18:08.433Z,100.00
2023-01-17T05:20:36.724Z,100.00
2023-01-17T05:23:03.448Z,100.00
2023-01-17T05:25:31.995Z,100.00
2023-01-17T05:28:02.265Z,100.00
2023-01-17T05:30:30.842Z,100.00
2023-01-17T05:32:58.913Z,100.00
2023-01-17T05:35:28.596Z,100.00
2023-01-17T05:37:55.835Z,100.00
2023-01-17T05:40:25.864Z,100.00
2023-01-17T05:42:54.167Z,100.00
2023-01-17T05:45:22.118Z,100.00
2023-01-17T05:47:53.539Z,100.00
2023-01-17T05:50:34.865Z,100.00
2023-01-17T05:53:05.086Z,100.00
2023-01-17T05:55:35.542Z,100.00
2023-01-17T05:58:02.410Z,100.00
2023-01-17T06:00:29.372Z,100.00
2023-01-17T06:02:57.979Z,100.00
2023-01-17T06:05:25.646Z,100.00
2023-01-17T06:07:52.383Z,100.00
2023-01-17T06:10:20.889Z,100.00
2023-01-17T06:12:48.080Z,100.00
2023-01-17T06:15:16.449Z,100.00
2023-01-17T06:17:43.125Z,100.00
2023-01-17T06:20:12.149Z,100.00
2023-01-17T06:22:38.704Z,100.00
2023-01-17T06:25:05.589Z,100.00
2023-01-17T06:27:32.236Z,100.00
2023-01-17T06:29:58.785Z,100.00
2023-01-17T06:32:25.403Z,100.00
2023-01-17T06:34:51.867Z,100.00
2023-01-17T06:37:18.439Z,100.00
2023-01-17T06:39:45.183Z,100.00
2023-01-17T06:42:11.714Z,100.00
2023-01-17T06:44:38.419Z,100.00
2023-01-17T06:47:04.973Z,100.00
2023-01-17T06:49:31.515Z,100.00
2023-01-17T06:51:58.068Z,100.00
2023-01-17T06:54:24.609Z,100.00
2023-01-17T06:56:51.234Z,100.00
2023-01-17T06:59:17.813Z,100.00
2023-01-17T07:01:44.521Z,100.00
2023-01-17T07:04:11.191Z,100.00
2023-01-17T07:06:37.770Z,100.00
2023-01-17T07:09:04.443Z,100.00
2023-01-17T07:11:31.769Z,100.00
2023-01-17T07:13:58.379Z,100.00
2023-01-17T07:16:25.016Z,100.00
2023-01-17T07:18:51.836Z,100.00
2023-01-17T07:21:18.623Z,100.00
2023-01-17T07:23:45.184Z,100.00
2023-01-17T07:26:13.432Z,100.00
2023-01-17T07:28:39.970Z,100.00
2023-01-17T07:31:08.058Z,100.00
2023-01-17T07:33:35.241Z,100.00
2023-01-17T07:36:07.318Z,100.00
2023-01-17T07:38:34.639Z,100.00
2023-01-17T07:41:01.801Z,100.00
2023-01-17T07:43:28.601Z,100.00
2023-01-17T07:45:55.315Z,100.00
2023-01-17T07:48:24.326Z,100.00
2023-01-17T07:50:58.390Z,100.00
2023-01-17T07:53:27.152Z,100.00
2023-01-17T07:55:54.364Z,100.00
2023-01-17T07:58:21.634Z,100.00
2023-01-17T08:00:48.403Z,100.00
2023-01-17T08:03:17.604Z,100.00
2023-01-17T08:05:53.187Z,100.00
2023-01-17T08:08:20.101Z,100.00
2023-01-17T08:10:47.141Z,100.00
2023-01-17T08:13:13.707Z,100.00
2023-01-17T08:15:40.315Z,100.00
2023-01-17T08:18:06.961Z,100.00
2023-01-17T08:20:33.500Z,100.00
2023-01-17T08:23:00.108Z,100.00
2023-01-17T08:25:27.368Z,100.00
2023-01-17T08:27:57.770Z,100.00
2023-01-17T08:30:25.047Z,100.00
2023-01-17T08:32:51.775Z,100.00
2023-01-17T08:35:19.958Z,100.00
2023-01-17T08:37:48.269Z,100.00
2023-01-17T08:40:18.389Z,100.00
2023-01-17T08:42:45.001Z,100.00
2023-01-17T08:45:12.750Z,100.00
2023-01-17T08:47:39.532Z,100.00
2023-01-17T08:50:06.998Z,100.00
2023-01-17T08:52:33.945Z,100.00
2023-01-17T08:55:00.637Z,100.00
2023-01-17T08:57:27.548Z,100.00
2023-01-17T08:59:54.056Z,100.00
2023-01-17T09:02:20.690Z,100.00
2023-01-17T09:04:49.085Z,100.00
2023-01-17T09:07:17.940Z,100.00
2023-01-17T09:09:44.597Z,100.00
2023-01-17T09:12:11.232Z,100.00
2023-01-17T09:14:38.323Z,100.00
2023-01-17T09:17:07.937Z,100.00
2023-01-17T09:19:35.448Z,100.00
2023-01-17T09:22:04.246Z,100.00
2023-01-17T09:24:31.199Z,100.00
2023-01-17T09:26:58.103Z,100.00
2023-01-17T09:29:24.635Z,100.00
2023-01-17T09:31:51.180Z,100.00
2023-01-17T09:34:18.567Z,100.00
2023-01-17T09:36:45.698Z,100.00
2023-01-17T09:39:14.954Z,100.00
2023-01-17T09:41:59.198Z,100.00
2023-01-17T09:44:52.201Z,100.00
2023-01-17T09:47:43.632Z,100.00
2023-01-17T09:50:21.075Z,100.00
2023-01-17T09:52:47.806Z,100.00
2023-01-17T09:55:15.997Z,100.00
2023-01-17T09:58:03.337Z,100.00
2023-01-17T10:00:38.818Z,100.00
2023-01-17T10:03:40.923Z,100.00
2023-01-17T10:06:15.343Z,100.00
2023-01-17T10:08:41.885Z,100.00
2023-01-17T10:11:30.518Z,94.59
2023-01-17T10:14:05.781Z,89.82
2023-01-17T10:16:54.240Z,91.79
2023-01-17T10:19:23.447Z,90.99
2023-01-17T10:22:32.269Z,91.41
2023-01-17T10:25:33.332Z,87.44
2023-01-17T10:28:18.484Z,88.35
2023-01-17T10:30:54.487Z,90.86
2023-01-17T10:33:29.412Z,88.67
2023-01-17T10:36:15.339Z,82.87
2023-01-17T10:38:47.276Z,82.11
2023-01-17T10:41:37.310Z,82.94
2023-01-17T10:44:39.527Z,83.19
2023-01-17T10:47:12.146Z,82.61
2023-01-17T10:49:44.158Z,85.19
2023-01-17T10:52:16.140Z,83.17
2023-01-17T10:55:04.073Z,80.70
2023-01-17T10:57:41.180Z,82.17
2023-01-17T11:00:28.947Z,83.37
2023-01-17T11:02:56.007Z,84.97
2023-01-17T11:05:29.051Z,84.78
2023-01-17T11:08:03.261Z,87.47
2023-01-17T11:10:36.817Z,88.59
2023-01-17T11:13:06.582Z,91.11
2023-01-17T11:15:37.421Z,90.29
2023-01-17T11:18:07.283Z,89.36
2023-01-17T11:20:37.048Z,91.14
2023-01-17T11:23:29.926Z,92.12
2023-01-17T11:25:58.976Z,90.40
2023-01-17T11:28:35.070Z,88.82
2023-01-17T11:31:28.677Z,86.93
2023-01-17T11:34:16.738Z,84.69
2023-01-17T11:36:43.868Z,82.69
2023-01-17T11:39:27.563Z,77.02
2023-01-17T11:41:54.213Z,72.33
2023-01-17T11:44:32.807Z,68.56
2023-01-17T11:47:11.102Z,64.86
2023-01-17T11:49:38.708Z,65.13
2023-01-17T11:52:22.387Z,66.92
2023-01-17T11:54:50.538Z,67.48
2023-01-17T11:57:29.044Z,66.21
2023-01-17T12:00:23.802Z,65.20
2023-01-17T12:03:17.793Z,67.55
2023-01-17T12:06:03.644Z,66.88
2023-01-17T12:08:56.056Z,66.45
2023-01-17T12:12:10.012Z,64.99
2023-01-17T12:15:00.792Z,66.00
2023-01-17T12:17:46.238Z,66.78
2023-01-17T12:20:46.507Z,63.70
2023-01-17T12:23:27.773Z,60.93
2023-01-17T12:26:30.297Z,60.67
2023-01-17T12:29:33.298Z,60.57
2023-01-17T12:32:28.429Z,59.22
2023-01-17T12:35:00.927Z,60.63
2023-01-17T12:37:39.892Z,60.19
2023-01-17T12:40:35.410Z,59.46
2023-01-17T12:43:13.972Z,59.18
2023-01-17T12:45:45.423Z,58.48
2023-01-17T12:48:15.929Z,58.27
2023-01-17T12:51:08.011Z,57.95
2023-01-17T12:53:46.734Z,56.66
2023-01-17T12:56:13.172Z,57.62
2023-01-17T12:58:54.237Z,58.10
2023-01-17T13:01:39.797Z,57.50
2023-01-17T13:04:24.236Z,57.66
2023-01-17T13:06:59.984Z,58.50
2023-01-17T13:09:36.918Z,59.32
2023-01-17T13:12:07.718Z,59.45
2023-01-17T13:14:34.427Z,58.54
2023-01-17T13:17:06.313Z,59.20
2023-01-17T13:19:45.213Z,58.15
2023-01-17T13:22:18.306Z,58.16
2023-01-17T13:25:16.208Z,58.73
2023-01-17T13:28:03.274Z,57.62
2023-01-17T13:31:06.651Z,56.39
2023-01-17T13:33:49.724Z,57.52
2023-01-17T13:36:45.378Z,56.58
2023-01-17T13:39:45.005Z,56.33
2023-01-17T13:42:29.588Z,58.16
2023-01-17T13:44:57.967Z,57.09
2023-01-17T13:47:32.089Z,56.23
2023-01-17T13:49:58.725Z,56.48
2023-01-17T13:52:25.260Z,56.69
2023-01-17T13:54:54.930Z,56.74
2023-01-17T13:57:32.854Z,56.54
2023-01-17T14:00:23.422Z,55.71
2023-01-17T14:02:51.912Z,55.43
2023-01-17T14:05:42.100Z,55.44
2023-01-17T14:08:18.281Z,56.16
2023-01-17T14:10:48.689Z,56.31
2023-01-17T14:13:33.013Z,55.91
2023-01-17T14:16:01.825Z,53.94
2023-01-17T14:18:40.876Z,54.00
2023-01-17T14:21:31.714Z,53.40
2023-01-17T14:24:06.210Z,54.03
2023-01-17T14:26:59.041Z,52.78
2023-01-17T14:29:46.349Z,52.65
2023-01-17T14:32:19.530Z,53.74
2023-01-17T14:34:48.149Z,54.21
2023-01-17T14:37:20.720Z,56.54
2023-01-17T14:39:49.245Z,58.06
2023-01-17T14:42:20.403Z,59.65
2023-01-17T14:44:49.588Z,59.72
2023-01-17T14:47:16.810Z,59.50
2023-01-17T14:49:43.959Z,60.53
2023-01-17T14:52:16.385Z,60.37
2023-01-17T14:54:51.388Z,60.24
2023-01-17T14:57:29.537Z,61.23
2023-01-17T15:00:19.864Z,62.38
2023-01-17T15:02:48.613Z,62.63
2023-01-17T15:05:17.592Z,63.31
2023-01-17T15:07:46.974Z,63.56
2023-01-17T15:10:15.982Z,64.23
2023-01-17T15:12:46.678Z,64.05
2023-01-17T15:15:45.568Z,64.42
2023-01-17T15:18:14.771Z,64.25
2023-01-17T15:20:43.578Z,64.14
2023-01-17T15:23:19.902Z,65.39
2023-01-17T15:25:48.525Z,64.95
2023-01-17T15:28:15.486Z,65.54
2023-01-17T15:31:04.239Z,65.32
2023-01-17T15:33:32.748Z,65.65
2023-01-17T15:36:05.439Z,66.22
2023-01-17T15:38:38.785Z,67.41
2023-01-17T15:41:12.279Z,67.88
2023-01-17T15:43:40.972Z,68.53
2023-01-17T15:46:28.998Z,69.51
2023-01-17T15:49:17.730Z,70.27
2023-01-17T15:51:54.775Z,71.68
2023-01-17T15:54:25.376Z,72.29
2023-01-17T15:57:25.477Z,72.01
2023-01-17T16:00:00.205Z,72.19
2023-01-17T16:02:37.348Z,73.94
2023-01-17T16:05:22.910Z,75.04
2023-01-17T16:07:54.859Z,75.99
2023-01-17T16:10:28.885Z,76.43
2023-01-17T16:12:56.340Z,77.26
2023-01-17T16:15:23.957Z,76.95
2023-01-17T16:17:57.919Z,76.76
2023-01-17T16:20:30.651Z,77.61
2023-01-17T16:22:57.249Z,77.84
2023-01-17T16:25:25.288Z,78.50
2023-01-17T16:27:52.947Z,80.08
2023-01-17T16:30:23.995Z,79.25
2023-01-17T16:32:51.437Z,79.42
2023-01-17T16:35:21.182Z,80.23
2023-01-17T16:37:52.529Z,80.84
2023-01-17T16:40:25.614Z,82.25
2023-01-17T16:42:52.193Z,82.80
2023-01-17T16:45:19.328Z,83.21
2023-01-17T16:47:47.720Z,84.09
2023-01-17T16:50:17.765Z,84.15
2023-01-17T16:52:44.437Z,85.92
2023-01-17T16:55:14.011Z,85.48
2023-01-17T16:57:43.496Z,85.60
2023-01-17T17:00:12.284Z,85.88
2023-01-17T17:02:40.619Z,86.88
2023-01-17T17:05:11.190Z,87.27
2023-01-17T17:07:43.426Z,88.30
2023-01-17T17:10:10.673Z,89.52
2023-01-17T17:12:38.378Z,90.87
2023-01-17T17:15:05.547Z,92.69
2023-01-17T17:17:40.400Z,94.64
2023-01-17T17:20:12.376Z,95.30
2023-01-17T17:22:44.443Z,96.61
2023-01-17T17:25:16.106Z,98.40
2023-01-17T17:27:43.352Z,99.31
2023-01-17T17:32:51.846Z,100.00
2023-01-17T17:35:18.413Z,100.00
2023-01-17T17:37:45.128Z,100.00
2023-01-17T17:40:11.836Z,100.00
2023-01-17T17:42:38.489Z,100.00
2023-01-17T17:45:05.537Z,100.00
2023-01-17T17:47:32.799Z,100.00
2023-01-17T17:49:59.425Z,100.00
2023-01-17T17:52:26.223Z,100.00
2023-01-17T17:54:53.030Z,100.00
2023-01-17T17:57:20.136Z,100.00
2023-01-17T17:59:46.641Z,100.00
2023-01-17T18:02:13.788Z,100.00
2023-01-17T18:04:40.375Z,100.00
2023-01-17T18:07:07.028Z,100.00
2023-01-17T18:09:33.667Z,100.00
2023-01-17T18:12:01.116Z,100.00
2023-01-17T18:14:27.727Z,100.00
2023-01-17T18:16:54.348Z,100.00
2023-01-17T18:19:26.081Z,100.00
2023-01-17T18:21:53.151Z,100.00
2023-01-17T18:24:24.536Z,100.00
2023-01-17T18:26:54.676Z,100.00
2023-01-17T18:29:21.930Z,100.00
2023-01-17T18:31:56.043Z,100.00
2023-01-17T18:34:29.434Z,100.00
2023-01-17T18:36:56.754Z,100.00
2023-01-17T18:39:26.195Z,100.00
2023-01-17T18:41:54.030Z,100.00
2023-01-17T18:44:22.288Z,100.00
2023-01-17T18:46:50.303Z,100.00
2023-01-17T18:49:19.367Z,100.00
2023-01-17T18:51:51.082Z,100.00
2023-01-17T18:54:19.736Z,100.00
2023-01-17T18:56:46.646Z,100.00
2023-01-17T18:59:16.044Z,100.00
2023-01-17T19:01:43.681Z,100.00
2023-01-17T19:04:12.113Z,100.00
2023-01-17T19:06:41.680Z,100.00
2023-01-17T19:09:09.322Z,100.00
2023-01-17T19:11:36.720Z,100.00
2023-01-17T19:14:04.191Z,100.00
2023-01-17T19:16:36.584Z,100.00
2023-01-17T19:19:07.091Z,100.00
2023-01-17T19:21:34.678Z,100.00
2023-01-17T19:24:01.463Z,100.00
2023-01-17T19:26:29.161Z,100.00
2023-01-17T19:28:58.818Z,100.00
2023-01-17T19:31:28.190Z,100.00
2023-01-17T19:33:58.352Z,100.00
2023-01-17T19:36:31.868Z,100.00
2023-01-17T19:39:04.962Z,100.00
2023-01-17T19:41:34.359Z,100.00
2023-01-17T19:44:05.661Z,100.00
2023-01-17T19:46:32.861Z,100.00
2023-01-17T19:48:59.814Z,100.00
2023-01-17T19:51:27.315Z,100.00
2023-01-17T19:53:54.699Z,100.00
2023-01-17T19:56:23.661Z,100.00
2023-01-17T19:58:50.463Z,100.00
2023-01-17T20:01:20.514Z,100.00
2023-01-17T20:03:51.184Z,100.00
2023-01-17T20:06:22.885Z,100.00
2023-01-17T20:08:49.893Z,100.00
2023-01-17T20:11:19.807Z,100.00
2023-01-17T20:13:48.290Z,100.00
2023-01-17T20:16:18.611Z,100.00
2023-01-17T20:18:47.878Z,100.00
2023-01-17T20:21:18.856Z,100.00
2023-01-17T20:23:47.104Z,100.00
2023-01-17T20:26:16.013Z,100.00
2023-01-17T20:28:44.634Z,100.00
2023-01-17T20:31:14.384Z,100.00
2023-01-17T20:33:42.413Z,100.00
2023-01-17T20:36:11.906Z,100.00
2023-01-17T20:38:46.525Z,100.00
2023-01-17T20:41:18.481Z,100.00
2023-01-17T20:43:48.012Z,100.00
2023-01-17T20:46:15.786Z,100.00
2023-01-17T20:48:58.651Z,100.00
2023-01-17T20:51:27.356Z,100.00
2023-01-17T20:53:59.679Z,100.00
2023-01-17T20:56:28.201Z,100.00
2023-01-17T20:58:55.102Z,100.00
2023-01-17T21:01:22.201Z,100.00
2023-01-17T21:03:51.624Z,100.00
2023-01-17T21:06:20.737Z,100.00
2023-01-17T21:08:48.328Z,100.00
2023-01-17T21:11:17.504Z,100.00
2023-01-17T21:13:45.604Z,100.00
2023-01-17T21:16:14.382Z,100.00
2023-01-17T21:18:42.495Z,100.00
2023-01-17T21:21:13.154Z,100.00
2023-01-17T21:23:41.012Z,100.00
2023-01-17T21:26:12.311Z,100.00
2023-01-17T21:28:42.516Z,100.00
2023-01-17T21:31:26.059Z,100.00
2023-01-17T21:34:05.017Z,100.00
2023-01-17T21:36:35.517Z,100.00
2023-01-17T21:39:04.919Z,100.00
2023-01-17T21:41:39.798Z,100.00
2023-01-17T21:44:11.491Z,100.00
2023-01-17T21:46:40.051Z,100.00
2023-01-17T21:49:11.091Z,100.00
2023-01-17T21:51:54.287Z,100.00
2023-01-17T21:54:42.027Z,100.00
2023-01-17T21:57:28.627Z,100.00
2023-01-17T21:59:55.712Z,100.00
2023-01-17T22:02:23.879Z,100.00
2023-01-17T22:04:55.827Z,100.00
2023-01-17T22:07:33.752Z,100.00
2023-01-17T22:10:00.810Z,100.00
2023-01-17T22:12:27.576Z,100.00
2023-01-17T22:14:54.587Z,100.00
2023-01-17T22:17:23.223Z,100.00
2023-01-17T22:19:51.052Z,100.00
2023-01-17T22:22:19.068Z,100.00
2023-01-17T22:24:46.418Z,100.00
2023-01-17T22:27:13.792Z,100.00
2023-01-17T22:29:40.412Z,100.00
2023-01-17T22:32:32.779Z,100.00
2023-01-17T22:34:59.344Z,100.00
2023-01-17T22:37:26.812Z,100.00
2023-01-17T22:39:54.002Z,100.00
2023-01-17T22:42:21.161Z,100.00
2023-01-17T22:44:48.541Z,100.00
2023-01-17T22:47:16.053Z,100.00
2023-01-17T22:49:42.828Z,100.00
2023-01-17T22:52:09.531Z,100.00
2023-01-17T22:54:36.474Z,100.00
2023-01-17T22:57:03.522Z,100.00
2023-01-17T22:59:30.080Z,100.00
2023-01-17T23:01:56.800Z,100.00
2023-01-17T23:04:33.314Z,100.00
2023-01-17T23:07:00.070Z,100.00
2023-01-17T23:09:26.650Z,100.00
2023-01-17T23:11:55.313Z,100.00
2023-01-17T23:14:23.941Z,100.00
2023-01-17T23:17:21.480Z,100.00
2023-01-17T23:19:54.789Z,100.00
2023-01-17T23:22:23.373Z,100.00
2023-01-17T23:25:03.994Z,100.00
2023-01-17T23:28:03.106Z,100.00
2023-01-17T23:30:36.350Z,100.00
2023-01-17T23:33:15.589Z,100.00
2023-01-17T23:36:11.650Z,100.00
2023-01-17T23:38:40.611Z,100.00
2023-01-17T23:41:27.482Z,100.00
2023-01-17T23:43:56.165Z,100.00
2023-01-17T23:46:25.283Z,100.00
2023-01-17T23:48:52.333Z,100.00
2023-01-17T23:51:18.959Z,100.00
2023-01-17T23:53:45.577Z,100.00
2023-01-17T23:56:19.654Z,100.00
2023-01-17T23:58:46.664Z,100.00
